Time;durP1;ratioP1;P1;durP2;ratioP2;P2;SDS_P1;SDS_P2;PMS_P1;PMS_P2;Temp;Humidity;BMP_temperature;BMP_pressure;BME280_temperature;BME280_humidity;BME280_pressure;Samples;Min_cycle;Max_cycle;Signal;HPM_P1;HPM_P2
2021/09/25 00:02:23;;;;;;;5.47;1.45;;;12.20;77.20;;;;;;5136547;28;20035;-39
2021/09/25 00:04:48;;;;;;;4.93;1.50;;;12.20;77.00;;;;;;5136117;28;20027;-36
2021/09/25 00:07:14;;;;;;;3.35;1.70;;;12.20;76.90;;;;;;5136276;28;20027;-38
2021/09/25 00:09:40;;;;;;;3.85;1.65;;;12.20;76.90;;;;;;5136402;28;20053;-35
2021/09/25 00:12:10;;;;;;;7.50;1.77;;;12.20;77.00;;;;;;5136247;28;20076;-36
2021/09/25 00:14:39;;;;;;;3.33;1.40;;;12.20;76.80;;;;;;5136048;28;20016;-37
2021/09/25 00:17:10;;;;;;;7.70;1.48;;;12.20;76.70;;;;;;5136331;28;20312;-41
2021/09/25 00:19:37;;;;;;;2.03;1.27;;;12.20;76.70;;;;;;5136232;28;20035;-40
2021/09/25 00:22:04;;;;;;;4.07;1.67;;;12.20;76.70;;;;;;5135849;28;20114;-41
2021/09/25 00:24:29;;;;;;;2.50;1.38;;;12.20;76.70;;;;;;5135969;28;20023;-40
2021/09/25 00:26:55;;;;;;;4.93;1.33;;;12.20;76.80;;;;;;5135997;28;20087;-36
2021/09/25 00:29:21;;;;;;;3.10;1.17;;;12.20;76.70;;;;;;5136650;27;20027;-41
2021/09/25 00:31:47;;;;;;;3.35;1.13;;;12.30;76.70;;;;;;5139554;27;20114;-40
2021/09/25 00:34:13;;;;;;;3.15;1.20;;;12.30;76.70;;;;;;5139787;27;20177;-37
2021/09/25 00:36:39;;;;;;;4.32;1.35;;;12.30;76.60;;;;;;5139761;27;20031;-41
2021/09/25 00:39:04;;;;;;;2.55;1.35;;;12.30;76.60;;;;;;5139699;27;20391;-38
2021/09/25 00:41:30;;;;;;;4.63;1.33;;;12.30;76.60;;;;;;5139726;27;20318;-36
2021/09/25 00:43:56;;;;;;;3.13;1.30;;;12.30;76.40;;;;;;5139411;27;20023;-36
2021/09/25 00:46:22;;;;;;;3.55;1.40;;;12.30;76.60;;;;;;5139834;27;20027;-39
2021/09/25 00:48:49;;;;;;;2.60;1.52;;;12.30;76.50;;;;;;5139260;27;20038;-40
2021/09/25 00:51:16;;;;;;;5.30;1.83;;;12.30;76.60;;;;;;5139182;27;20031;-36
2021/09/25 00:53:42;;;;;;;6.28;1.70;;;12.30;76.60;;;;;;5139469;27;20019;-36
2021/09/25 00:56:09;;;;;;;5.45;1.50;;;12.30;76.50;;;;;;5139381;27;20027;-39
2021/09/25 00:58:39;;;;;;;2.03;1.30;;;12.30;76.50;;;;;;5139657;27;20027;-39
2021/09/25 01:01:05;;;;;;;2.63;1.10;;;12.30;76.40;;;;;;5138986;27;20418;-40
2021/09/25 01:03:31;;;;;;;5.32;1.60;;;12.30;76.40;;;;;;5139113;27;20031;-40
2021/09/25 01:05:57;;;;;;;5.65;1.73;;;12.30;76.50;;;;;;5138991;27;20341;-36
2021/09/25 01:08:23;;;;;;;3.28;1.45;;;12.30;76.40;;;;;;5139264;27;20410;-41
2021/09/25 01:10:53;;;;;;;3.33;2.40;;;12.30;76.50;;;;;;5138697;27;20033;-40
2021/09/25 01:13:21;;;;;;;5.50;1.67;;;12.30;76.50;;;;;;5139042;27;20544;-40
2021/09/25 01:15:47;;;;;;;6.22;1.30;;;12.30;76.50;;;;;;5138820;27;20094;-40
2021/09/25 01:18:13;;;;;;;4.57;1.58;;;12.30;76.50;;;;;;5138972;27;20030;-36
2021/09/25 01:20:39;;;;;;;10.65;2.28;;;12.30;76.50;;;;;;5138582;27;20027;-40
2021/09/25 01:23:05;;;;;;;4.97;1.45;;;12.30;76.60;;;;;;5139439;27;20030;-37
2021/09/25 01:25:32;;;;;;;4.00;1.50;;;12.20;76.60;;;;;;5139003;27;20027;-37
2021/09/25 01:27:59;;;;;;;2.95;1.42;;;12.20;76.80;;;;;;5138443;27;20206;-36
2021/09/25 01:30:25;;;;;;;3.15;1.35;;;12.20;76.90;;;;;;5138930;27;20024;-37
2021/09/25 01:32:51;;;;;;;6.05;2.03;;;12.20;76.90;;;;;;5138706;27;20292;-37
2021/09/25 01:35:22;;;;;;;2.63;1.48;;;12.20;76.90;;;;;;5138506;27;20106;-38
2021/09/25 01:37:49;;;;;;;8.82;1.65;;;12.20;76.90;;;;;;5138717;27;20047;-39
2021/09/25 01:40:16;;;;;;;5.40;1.80;;;12.20;77.00;;;;;;5138651;27;20035;-39
2021/09/25 01:42:43;;;;;;;3.55;1.30;;;12.20;77.00;;;;;;5138777;27;20318;-36
2021/09/25 01:45:09;;;;;;;3.15;1.60;;;12.20;77.20;;;;;;5138799;27;20473;-40
2021/09/25 01:47:35;;;;;;;6.80;1.58;;;12.20;77.40;;;;;;5138409;27;20052;-36
2021/09/25 01:50:03;;;;;;;3.40;1.88;;;12.20;77.40;;;;;;5138249;27;20403;-36
2021/09/25 01:52:29;;;;;;;2.47;1.63;;;12.20;77.40;;;;;;5138037;27;20069;-37
2021/09/25 01:54:55;;;;;;;6.30;1.95;;;12.20;77.50;;;;;;5137937;27;20080;-41
2021/09/25 01:57:21;;;;;;;2.75;1.58;;;12.20;77.60;;;;;;5138362;27;20039;-37
2021/09/25 01:59:47;;;;;;;3.28;1.70;;;12.20;77.60;;;;;;5138098;27;20084;-37
2021/09/25 02:02:13;;;;;;;2.65;1.60;;;12.20;77.70;;;;;;5138184;27;20080;-40
2021/09/25 02:04:46;;;;;;;3.90;1.75;;;12.20;77.60;;;;;;5138143;27;20035;-39
2021/09/25 02:07:12;;;;;;;3.92;1.80;;;12.20;77.70;;;;;;5138218;27;20046;-41
2021/09/25 02:09:37;;;;;;;3.22;1.70;;;12.20;77.60;;;;;;5138170;27;20349;-39
2021/09/25 02:12:04;;;;;;;3.78;1.50;;;12.30;77.80;;;;;;5137984;27;20038;-39
2021/09/25 02:14:30;;;;;;;2.58;1.58;;;12.30;77.80;;;;;;5137831;27;20370;-37
2021/09/25 02:16:57;;;;;;;7.85;2.33;;;12.30;77.70;;;;;;5137714;27;20047;-40
2021/09/25 02:19:22;;;;;;;5.03;2.00;;;12.30;77.80;;;;;;5137638;27;20429;-40
2021/09/25 02:21:49;;;;;;;4.88;1.63;;;12.30;77.80;;;;;;5137888;27;20125;-36
2021/09/25 02:24:15;;;;;;;3.55;1.60;;;12.30;77.80;;;;;;5137916;27;20031;-39
2021/09/25 02:26:41;;;;;;;4.18;1.55;;;12.30;77.80;;;;;;5137734;27;20099;-39
2021/09/25 02:29:06;;;;;;;2.85;1.92;;;12.30;77.90;;;;;;5137747;27;20083;-39
2021/09/25 02:31:32;;;;;;;2.28;1.63;;;12.30;77.80;;;;;;5137655;27;20415;-36
2021/09/25 02:33:58;;;;;;;4.78;1.67;;;12.30;77.90;;;;;;5137211;27;20057;-41
2021/09/25 02:36:23;;;;;;;2.85;1.88;;;12.30;77.90;;;;;;5137608;27;20314;-37
2021/09/25 02:38:49;;;;;;;5.93;1.85;;;12.30;77.90;;;;;;5137483;27;20027;-40
2021/09/25 02:41:15;;;;;;;3.38;1.50;;;12.30;77.90;;;;;;5137144;27;20035;-37
2021/09/25 02:43:40;;;;;;;2.88;1.98;;;12.30;77.90;;;;;;5137508;27;20102;-40
2021/09/25 02:46:06;;;;;;;3.15;1.77;;;12.30;77.90;;;;;;5137098;27;20034;-37
2021/09/25 02:48:32;;;;;;;4.47;1.88;;;12.40;78.00;;;;;;5137269;27;20322;-39
2021/09/25 02:50:57;;;;;;;3.17;2.00;;;12.30;78.00;;;;;;5136921;27;20105;-37
2021/09/25 02:53:23;;;;;;;17.80;2.70;;;12.40;78.10;;;;;;5136429;27;20497;-37
2021/09/25 02:55:49;;;;;;;4.13;1.83;;;12.40;78.10;;;;;;5136584;27;20054;-40
2021/09/25 02:58:14;;;;;;;6.95;1.88;;;12.40;78.10;;;;;;5137345;27;20039;-40
2021/09/25 03:00:40;;;;;;;4.30;1.58;;;12.40;78.00;;;;;;5137080;27;20027;-39
2021/09/25 03:03:07;;;;;;;6.00;1.90;;;12.50;78.00;;;;;;5137244;27;20047;-40
2021/09/25 03:05:33;;;;;;;4.13;1.70;;;12.40;77.80;;;;;;5136768;27;20042;-39
2021/09/25 03:07:58;;;;;;;1.98;1.75;;;12.40;77.80;;;;;;5137060;27;20058;-41
2021/09/25 03:10:24;;;;;;;3.30;1.48;;;12.50;77.90;;;;;;5136940;27;20019;-40
2021/09/25 03:12:50;;;;;;;3.20;1.50;;;12.50;77.80;;;;;;5136938;27;20035;-41
2021/09/25 03:15:15;;;;;;;4.60;1.77;;;12.50;77.80;;;;;;5136735;27;20068;-40
2021/09/25 03:17:41;;;;;;;2.60;1.52;;;12.50;77.80;;;;;;5136945;27;20069;-40
2021/09/25 03:20:07;;;;;;;2.22;1.40;;;12.50;77.90;;;;;;5136764;27;20038;-41
2021/09/25 03:22:34;;;;;;;2.38;1.55;;;12.50;77.80;;;;;;5136487;27;20391;-40
2021/09/25 03:25:00;;;;;;;6.82;2.13;;;12.40;77.70;;;;;;5136789;27;20319;-36
2021/09/25 03:27:26;;;;;;;4.07;1.75;;;12.50;77.80;;;;;;5136430;27;20043;-36
2021/09/25 03:29:52;;;;;;;6.88;1.90;;;12.50;77.90;;;;;;5136635;27;20034;-37
2021/09/25 03:32:18;;;;;;;7.03;1.60;;;12.50;77.80;;;;;;5136346;27;20035;-37
2021/09/25 03:34:44;;;;;;;5.90;1.40;;;12.50;77.80;;;;;;5136402;27;20019;-40
2021/09/25 03:37:10;;;;;;;3.63;1.80;;;12.50;77.90;;;;;;5136712;28;20035;-37
2021/09/25 03:39:36;;;;;;;4.95;2.00;;;12.50;78.00;;;;;;5137011;28;20395;-37
2021/09/25 03:42:02;;;;;;;6.65;1.70;;;12.40;77.80;;;;;;5136508;28;20039;-37
2021/09/25 03:44:28;;;;;;;5.30;1.52;;;12.50;77.80;;;;;;5136492;28;20076;-38
2021/09/25 03:46:55;;;;;;;3.42;1.70;;;12.40;77.70;;;;;;5136341;28;20039;-41
2021/09/25 03:49:21;;;;;;;5.00;1.88;;;12.50;77.80;;;;;;5136359;28;20084;-40
2021/09/25 03:51:46;;;;;;;6.00;1.50;;;12.50;77.80;;;;;;5136541;28;20031;-40
2021/09/25 03:54:12;;;;;;;5.47;1.85;;;12.50;77.70;;;;;;5136125;28;20078;-40
2021/09/25 03:56:38;;;;;;;7.55;2.17;;;12.50;77.60;;;;;;5136432;28;20122;-37
2021/09/25 03:59:04;;;;;;;6.38;2.15;;;12.50;77.60;;;;;;5135984;28;20326;-38
2021/09/25 04:01:29;;;;;;;6.18;2.15;;;12.50;77.50;;;;;;5136225;28;20035;-41
2021/09/25 04:03:56;;;;;;;4.85;1.73;;;12.50;77.50;;;;;;5136237;27;20479;-41
2021/09/25 04:06:25;;;;;;;3.40;1.25;;;12.50;77.50;;;;;;5140524;27;20058;-41
2021/09/25 04:08:50;;;;;;;3.70;1.60;;;12.50;77.50;;;;;;5140365;27;20038;-39
2021/09/25 04:11:16;;;;;;;3.60;1.65;;;12.50;77.50;;;;;;5140309;27;20027;-36
2021/09/25 04:13:42;;;;;;;4.78;1.77;;;12.60;77.40;;;;;;5140224;27;20403;-36
2021/09/25 04:16:07;;;;;;;5.43;1.40;;;12.60;77.30;;;;;;5139821;27;20400;-36
2021/09/25 04:18:33;;;;;;;7.47;1.55;;;12.60;77.30;;;;;;5140127;27;20023;-40
2021/09/25 04:20:59;;;;;;;3.72;1.58;;;12.60;77.20;;;;;;5139743;27;20035;-36
2021/09/25 04:23:25;;;;;;;6.20;1.70;;;12.60;77.10;;;;;;5140310;27;20091;-40
2021/09/25 04:25:50;;;;;;;6.70;1.98;;;12.60;77.20;;;;;;5139602;27;20037;-40
2021/09/25 04:28:16;;;;;;;3.35;1.60;;;12.60;77.20;;;;;;5140208;27;20113;-36
2021/09/25 04:30:42;;;;;;;2.70;1.50;;;12.60;77.10;;;;;;5139639;27;20330;-40
2021/09/25 04:33:10;;;;;;;5.28;1.73;;;12.60;77.00;;;;;;5140304;27;20031;-41
2021/09/25 04:35:36;;;;;;;4.88;1.42;;;12.70;77.20;;;;;;5140064;27;20043;-42
2021/09/25 04:38:03;;;;;;;4.70;1.67;;;12.70;77.10;;;;;;5139908;27;20038;-40
2021/09/25 04:40:31;;;;;;;4.53;1.70;;;12.70;77.00;;;;;;5139543;27;20084;-37
2021/09/25 04:42:58;;;;;;;5.38;2.30;;;12.80;77.00;;;;;;5139975;27;20103;-40
2021/09/25 04:45:24;;;;;;;8.30;2.03;;;12.80;77.00;;;;;;5139344;27;20064;-41
2021/09/25 04:47:50;;;;;;;8.35;1.90;;;12.80;76.70;;;;;;5139880;27;20038;-41
2021/09/25 04:50:17;;;;;;;6.97;2.63;;;12.80;76.70;;;;;;5139747;27;20296;-41
2021/09/25 04:52:43;;;;;;;4.18;2.15;;;12.90;76.70;;;;;;5139461;27;20066;-42
2021/09/25 04:55:09;;;;;;;7.03;1.98;;;12.90;76.60;;;;;;5139117;27;20453;-38
2021/09/25 04:57:35;;;;;;;6.05;1.52;;;12.90;76.50;;;;;;5139513;27;20039;-42
2021/09/25 05:00:01;;;;;;;8.02;3.30;;;12.90;76.30;;;;;;5139318;27;20035;-37
2021/09/25 05:02:27;;;;;;;4.63;1.90;;;13.00;76.30;;;;;;5139390;27;20042;-41
2021/09/25 05:04:52;;;;;;;7.13;1.80;;;13.00;76.20;;;;;;5139114;27;20399;-41
2021/09/25 05:07:18;;;;;;;4.50;1.70;;;13.00;76.10;;;;;;5138919;27;20180;-36
2021/09/25 05:09:44;;;;;;;4.05;1.88;;;13.00;76.00;;;;;;5138998;27;20051;-40
2021/09/25 05:12:10;;;;;;;4.65;1.90;;;13.10;75.90;;;;;;5139161;27;20104;-37
2021/09/25 05:14:36;;;;;;;8.20;2.28;;;13.10;75.90;;;;;;5138582;27;20019;-39
2021/09/25 05:17:03;;;;;;;6.82;1.80;;;13.10;75.80;;;;;;5138329;27;20023;-40
2021/09/25 05:19:28;;;;;;;4.65;2.38;;;13.10;75.80;;;;;;5138980;27;20020;-40
2021/09/25 05:21:54;;;;;;;7.75;2.00;;;13.10;75.80;;;;;;5138750;27;20315;-37
2021/09/25 05:24:20;;;;;;;9.50;1.92;;;13.20;75.80;;;;;;5138618;27;20026;-37
2021/09/25 05:26:47;;;;;;;5.18;1.75;;;13.20;75.60;;;;;;5138814;27;20027;-40
2021/09/25 05:29:12;;;;;;;4.38;1.90;;;13.20;75.50;;;;;;5138329;27;20027;-41
2021/09/25 05:31:38;;;;;;;7.15;1.60;;;13.20;75.50;;;;;;5138821;27;20027;-39
2021/09/25 05:34:04;;;;;;;10.23;2.70;;;13.30;75.50;;;;;;5138111;27;20020;-36
2021/09/25 05:36:30;;;;;;;7.88;2.00;;;13.30;75.40;;;;;;5138257;27;20051;-41
2021/09/25 05:38:56;;;;;;;6.75;1.88;;;13.30;75.40;;;;;;5138246;27;20429;-37
2021/09/25 05:41:22;;;;;;;8.00;2.20;;;13.40;75.30;;;;;;5138334;27;20055;-41
2021/09/25 05:43:51;;;;;;;6.95;2.40;;;13.40;75.20;;;;;;5138117;27;20453;-37
2021/09/25 05:46:17;;;;;;;4.05;2.00;;;13.40;75.00;;;;;;5138305;27;20042;-37
2021/09/25 05:48:43;;;;;;;6.18;1.85;;;13.40;75.00;;;;;;5138465;27;20046;-38
2021/09/25 05:51:11;;;;;;;6.57;2.60;;;13.50;75.00;;;;;;5138120;27;20031;-41
2021/09/25 05:53:36;;;;;;;2.97;1.70;;;13.50;74.90;;;;;;5138298;27;20292;-37
2021/09/25 05:56:03;;;;;;;7.38;2.08;;;13.50;74.90;;;;;;5137641;27;20080;-40
2021/09/25 05:58:28;;;;;;;4.47;1.15;;;13.60;74.80;;;;;;5138052;27;20300;-37
2021/09/25 06:00:54;;;;;;;5.20;2.15;;;13.60;74.80;;;;;;5137548;27;20110;-37
2021/09/25 06:03:20;;;;;;;6.63;1.70;;;13.70;74.40;;;;;;5137875;27;20063;-43
2021/09/25 06:05:46;;;;;;;5.25;2.13;;;13.80;74.40;;;;;;5137613;27;20056;-38
2021/09/25 06:08:12;;;;;;;4.07;1.98;;;13.80;74.00;;;;;;5137659;27;20031;-38
2021/09/25 06:10:38;;;;;;;5.43;1.85;;;13.80;73.80;;;;;;5137724;27;20102;-38
2021/09/25 06:13:06;;;;;;;3.15;1.48;;;13.80;73.80;;;;;;5138091;27;20038;-40
2021/09/25 06:15:32;;;;;;;5.07;1.90;;;13.90;73.80;;;;;;5137754;27;20084;-38
2021/09/25 06:17:59;;;;;;;5.07;1.90;;;13.90;73.60;;;;;;5137066;27;20430;-42
2021/09/25 06:20:25;;;;;;;2.83;1.65;;;13.90;73.60;;;;;;5137356;27;20031;-41
2021/09/25 06:22:51;;;;;;;4.20;1.98;;;13.90;73.90;;;;;;5137831;27;20039;-38
2021/09/25 06:25:17;;;;;;;6.97;1.83;;;14.00;73.90;;;;;;5137653;27;20023;-37
2021/09/25 06:27:42;;;;;;;9.07;2.20;;;14.00;73.90;;;;;;5136538;27;20039;-38
2021/09/25 06:30:08;;;;;;;5.00;2.00;;;14.10;74.10;;;;;;5137562;27;20026;-40
2021/09/25 06:32:34;;;;;;;4.05;2.10;;;14.10;73.70;;;;;;5137295;27;20031;-41
2021/09/25 06:35:00;;;;;;;5.63;1.70;;;14.20;73.40;;;;;;5137132;27;20459;-40
2021/09/25 06:37:26;;;;;;;4.95;2.60;;;14.30;73.10;;;;;;5137506;27;20035;-36
2021/09/25 06:39:51;;;;;;;2.67;1.80;;;14.40;72.90;;;;;;5137293;27;20023;-41
2021/09/25 06:42:17;;;;;;;3.95;2.22;;;14.50;72.70;;;;;;5137474;27;20058;-40
2021/09/25 06:44:43;;;;;;;9.25;2.20;;;14.60;72.30;;;;;;5136989;27;20023;-37
2021/09/25 06:47:08;;;;;;;6.05;2.20;;;14.70;72.20;;;;;;5137067;27;20293;-38
2021/09/25 06:49:34;;;;;;;2.92;1.85;;;14.70;71.90;;;;;;5137075;27;20019;-40
2021/09/25 06:52:00;;;;;;;4.80;1.80;;;14.80;71.70;;;;;;5137143;27;20106;-40
2021/09/25 06:54:26;;;;;;;4.57;2.22;;;14.80;70.90;;;;;;5136657;27;20383;-41
2021/09/25 06:56:52;;;;;;;4.38;2.15;;;14.90;70.80;;;;;;5137148;27;20036;-41
2021/09/25 06:59:18;;;;;;;5.55;2.50;;;14.90;70.80;;;;;;5136953;27;20046;-37
2021/09/25 07:01:43;;;;;;;12.95;4.63;;;14.90;70.40;;;;;;5136643;27;20023;-41
2021/09/25 07:04:09;;;;;;;5.00;2.10;;;14.90;70.30;;;;;;5136546;27;20038;-37
2021/09/25 07:06:39;;;;;;;2.28;1.90;;;14.90;70.20;;;;;;5136579;27;20043;-36
2021/09/25 07:09:05;;;;;;;12.03;3.13;;;14.90;70.20;;;;;;5136323;27;20167;-37
2021/09/25 07:11:31;;;;;;;4.15;1.88;;;14.90;70.40;;;;;;5136321;27;20034;-36
2021/09/25 07:13:56;;;;;;;4.20;2.10;;;14.90;70.00;;;;;;5117918;27;20032;-36
2021/09/25 07:16:22;;;;;;;4.18;2.45;;;14.90;69.80;;;;;;5136376;27;20051;-41
2021/09/25 07:18:48;;;;;;;7.53;2.47;;;14.90;70.00;;;;;;5136904;27;20027;-38
2021/09/25 07:21:13;;;;;;;2.53;2.10;;;15.00;70.10;;;;;;5136625;27;20054;-42
2021/09/25 07:23:39;;;;;;;2.80;2.00;;;15.00;69.80;;;;;;5136541;27;20419;-42
2021/09/25 07:26:05;;;;;;;2.80;2.05;;;15.00;69.60;;;;;;5135961;27;20446;-40
2021/09/25 07:28:33;;;;;;;5.97;2.10;;;15.10;69.60;;;;;;5136474;27;20035;-39
2021/09/25 07:31:00;;;;;;;2.53;1.80;;;15.10;69.50;;;;;;5136380;27;20035;-39
2021/09/25 07:33:26;;;;;;;4.65;2.40;;;15.10;69.50;;;;;;5136300;27;20423;-36
2021/09/25 07:35:51;;;;;;;6.05;1.80;;;15.20;69.00;;;;;;5135938;27;20108;-37
2021/09/25 07:38:17;;;;;;;3.65;2.55;;;15.30;68.80;;;;;;5136458;27;20315;-42
2021/09/25 07:40:43;;;;;;;3.90;1.95;;;15.30;68.40;;;;;;5136362;28;20035;-41
2021/09/25 07:43:08;;;;;;;3.25;2.35;;;15.30;68.20;;;;;;5136725;28;20039;-41
2021/09/25 07:45:34;;;;;;;4.45;2.30;;;15.30;68.10;;;;;;5136241;28;20038;-38
2021/09/25 07:48:01;;;;;;;7.45;2.65;;;15.40;68.30;;;;;;5136206;28;20047;-41
2021/09/25 07:50:27;;;;;;;5.25;2.10;;;15.40;68.50;;;;;;5135897;28;20023;-41
2021/09/25 07:52:55;;;;;;;5.15;2.40;;;15.40;67.90;;;;;;5136003;28;20038;-42
2021/09/25 07:55:22;;;;;;;4.85;2.50;;;15.40;68.10;;;;;;5135833;28;20498;-37
2021/09/25 07:57:47;;;;;;;8.15;2.20;;;15.40;68.00;;;;;;5136386;28;20050;-42
2021/09/25 08:00:15;;;;;;;4.82;2.42;;;15.40;67.70;;;;;;5136389;28;20027;-38
2021/09/25 08:02:41;;;;;;;3.83;1.88;;;15.50;67.70;;;;;;5136344;28;20062;-38
2021/09/25 08:05:08;;;;;;;2.33;2.10;;;15.50;67.60;;;;;;5135682;28;20031;-37
2021/09/25 08:07:34;;;;;;;5.78;3.15;;;15.50;67.70;;;;;;5136195;28;20121;-38
2021/09/25 08:09:59;;;;;;;5.40;2.50;;;15.60;67.60;;;;;;5135905;28;20168;-36
2021/09/25 08:12:25;;;;;;;6.47;3.17;;;15.60;67.60;;;;;;5135973;28;20039;-41
2021/09/25 08:14:51;;;;;;;5.22;2.25;;;15.60;67.30;;;;;;5135737;28;20024;-41
2021/09/25 08:17:17;;;;;;;3.35;2.15;;;15.60;67.10;;;;;;5136072;28;20043;-42
2021/09/25 08:19:43;;;;;;;7.47;2.50;;;15.70;67.10;;;;;;5135485;28;20032;-41
2021/09/25 08:22:09;;;;;;;7.47;2.92;;;15.70;67.00;;;;;;5135753;28;20084;-41
2021/09/25 08:24:34;;;;;;;6.57;2.70;;;15.70;67.00;;;;;;5135762;28;20039;-42
2021/09/25 08:27:00;;;;;;;5.15;2.20;;;15.70;66.90;;;;;;5135601;28;20130;-36
2021/09/25 08:29:25;;;;;;;5.35;2.13;;;15.80;66.60;;;;;;5135594;28;20058;-40
2021/09/25 08:31:51;;;;;;;6.43;2.50;;;15.80;66.90;;;;;;5135754;28;20038;-36
2021/09/25 08:34:18;;;;;;;8.63;2.40;;;15.90;67.30;;;;;;5135365;28;20024;-37
2021/09/25 08:36:45;;;;;;;5.45;2.75;;;15.80;66.80;;;;;;5135618;28;20038;-41
2021/09/25 08:39:11;;;;;;;4.25;2.60;;;15.90;66.80;;;;;;5135707;28;20075;-40
2021/09/25 08:41:36;;;;;;;9.88;3.92;;;15.90;66.80;;;;;;5135541;28;20039;-37
2021/09/25 08:44:03;;;;;;;9.05;3.65;;;15.80;66.90;;;;;;5135437;28;20315;-36
2021/09/25 08:46:31;;;;;;;6.93;3.67;;;15.80;67.10;;;;;;5133037;28;20039;-41
2021/09/25 08:48:56;;;;;;;6.05;3.42;;;15.80;66.90;;;;;;5134875;28;20023;-42
2021/09/25 08:51:22;;;;;;;10.02;3.13;;;15.80;67.00;;;;;;5137491;27;20288;-42
2021/09/25 08:53:48;;;;;;;6.13;3.53;;;15.80;67.20;;;;;;5138822;27;20110;-37
2021/09/25 08:56:14;;;;;;;6.45;3.65;;;15.90;67.80;;;;;;5138559;27;20063;-37
2021/09/25 08:58:40;;;;;;;7.03;3.20;;;15.90;67.90;;;;;;5139253;27;20410;-37
2021/09/25 09:01:06;;;;;;;7.13;3.38;;;16.00;67.40;;;;;;5138390;27;20031;-41
2021/09/25 09:03:38;;;;;;;5.05;3.08;;;16.10;67.10;;;;;;5138978;27;20114;-37
2021/09/25 09:06:03;;;;;;;5.95;2.90;;;16.20;66.40;;;;;;5138227;27;20050;-42
2021/09/25 09:08:30;;;;;;;6.72;3.60;;;16.30;66.20;;;;;;5139001;27;20032;-41
2021/09/25 09:10:55;;;;;;;4.60;2.70;;;16.40;65.70;;;;;;5138174;27;20030;-37
2021/09/25 09:13:21;;;;;;;7.82;4.20;;;16.40;65.00;;;;;;5138483;27;20027;-42
2021/09/25 09:15:52;;;;;;;8.15;3.00;;;16.40;64.90;;;;;;5138186;27;20292;-42
2021/09/25 09:18:21;;;;;;;5.90;3.13;;;16.50;64.90;;;;;;5139012;27;20043;-41
2021/09/25 09:21:20;;;;;;;6.25;3.20;;;16.50;64.80;;;;;;5138080;27;20028;-38
2021/09/25 09:24:09;;;;;;;6.50;3.50;;;16.60;64.00;;;;;;5138373;27;20100;-38
2021/09/25 09:26:37;;;;;;;7.68;4.00;;;16.60;64.00;;;;;;5138486;27;20152;-36
2021/09/25 09:29:05;;;;;;;2.85;2.60;;;16.60;64.30;;;;;;5137247;27;20106;-38
2021/09/25 09:31:31;;;;;;;5.68;3.00;;;16.70;64.30;;;;;;5137806;27;20027;-37
2021/09/25 09:34:01;;;;;;;9.65;3.85;;;16.70;64.20;;;;;;5138455;27;20069;-41
2021/09/25 09:36:36;;;;;;;4.53;2.60;;;16.70;63.70;;;;;;5138335;27;20058;-37
2021/09/25 09:39:04;;;;;;;3.20;2.70;;;16.80;63.40;;;;;;5138392;27;20444;-37
2021/09/25 09:41:37;;;;;;;5.38;3.13;;;16.80;63.40;;;;;;5138178;27;20027;-38
2021/09/25 09:44:07;;;;;;;3.55;2.95;;;16.80;63.80;;;;;;5137948;27;20030;-37
2021/09/25 09:46:48;;;;;;;12.65;5.97;;;16.80;63.50;;;;;;5138260;27;20031;-42
2021/09/25 09:49:15;;;;;;;4.78;2.25;;;16.90;63.70;;;;;;5138093;27;20023;-40
2021/09/25 09:51:48;;;;;;;6.22;2.97;;;16.90;63.20;;;;;;5133323;27;20130;-38
2021/09/25 09:54:25;;;;;;;5.45;2.10;;;16.90;62.70;;;;;;5137741;27;20043;-41
2021/09/25 09:56:56;;;;;;;9.43;5.30;;;16.90;62.50;;;;;;5137521;27;20035;-38
2021/09/25 09:59:22;;;;;;;3.28;2.00;;;16.90;62.60;;;;;;5137493;27;20065;-38
2021/09/25 10:01:49;;;;;;;3.25;1.40;;;16.90;62.60;;;;;;5136106;27;20035;-37
2021/09/25 10:04:17;;;;;;;2.47;1.80;;;16.90;62.70;;;;;;5137671;27;20051;-37
2021/09/25 10:06:43;;;;;;;4.90;1.90;;;16.90;62.70;;;;;;5137393;27;20057;-40
2021/09/25 10:09:12;;;;;;;2.60;1.35;;;16.90;62.70;;;;;;5137403;27;20039;-42
2021/09/25 10:11:40;;;;;;;8.52;3.53;;;17.00;62.40;;;;;;5137277;27;20042;-38
2021/09/25 10:14:07;;;;;;;3.90;1.25;;;17.00;62.50;;;;;;5137249;27;20085;-38
2021/09/25 10:16:34;;;;;;;2.55;1.30;;;17.00;62.70;;;;;;5137176;27;20115;-38
2021/09/25 10:19:02;;;;;;;9.98;2.28;;;17.10;62.50;;;;;;5136908;27;20038;-38
2021/09/25 10:21:34;;;;;;;4.22;1.67;;;17.10;62.30;;;;;;5136907;27;20038;-38
2021/09/25 10:24:08;;;;;;;5.15;1.30;;;17.10;62.30;;;;;;5137083;27;20434;-38
2021/09/25 10:26:35;;;;;;;7.03;1.70;;;17.10;62.00;;;;;;5136607;27;20076;-41
2021/09/25 10:29:04;;;;;;;5.80;2.20;;;17.10;62.70;;;;;;5136869;27;20046;-41
2021/09/25 10:31:30;;;;;;;3.55;1.35;;;17.10;62.70;;;;;;5136875;27;20405;-42
2021/09/25 10:34:13;;;;;;;3.67;1.48;;;17.00;62.40;;;;;;5136762;27;20434;-41
2021/09/25 10:36:53;;;;;;;3.88;1.52;;;17.00;62.00;;;;;;5136844;27;20027;-42
2021/09/25 10:39:26;;;;;;;2.53;1.53;;;17.00;62.10;;;;;;5137181;27;20148;-40
2021/09/25 10:42:17;;;;;;;2.42;1.45;;;17.00;62.50;;;;;;5136631;27;20335;-36
2021/09/25 10:44:52;;;;;;;2.58;1.40;;;17.00;62.00;;;;;;5136494;27;20062;-37
2021/09/25 10:47:22;;;;;;;4.18;2.33;;;17.00;62.40;;;;;;5136804;27;20092;-42
2021/09/25 10:49:51;;;;;;;2.85;1.27;;;17.00;63.00;;;;;;5136740;27;20027;-37
2021/09/25 10:52:24;;;;;;;4.35;1.52;;;16.90;62.20;;;;;;5136676;27;20051;-40
2021/09/25 10:55:18;;;;;;;6.03;2.75;;;17.00;62.20;;;;;;5135601;27;20098;-41
2021/09/25 10:58:14;;;;;;;7.60;2.88;;;17.00;62.40;;;;;;5136945;27;20058;-41
2021/09/25 11:00:53;;;;;;;2.00;1.30;;;17.00;62.40;;;;;;5136978;27;20098;-41
2021/09/25 11:03:46;;;;;;;9.80;3.22;;;17.00;62.60;;;;;;5136670;27;20075;-40
2021/09/25 11:06:29;;;;;;;4.03;2.58;;;17.00;62.60;;;;;;5136838;27;20033;-36
2021/09/25 11:09:23;;;;;;;4.47;1.60;;;17.10;62.50;;;;;;5136778;27;20319;-38
2021/09/25 11:12:06;;;;;;;3.67;2.03;;;17.10;62.70;;;;;;5136614;27;20035;-37
2021/09/25 11:14:39;;;;;;;4.85;2.40;;;17.20;62.50;;;;;;5136251;27;20038;-41
2021/09/25 11:17:19;;;;;;;2.97;1.63;;;17.20;62.50;;;;;;5135973;27;20031;-37
2021/09/25 11:19:54;;;;;;;7.07;3.85;;;17.30;62.10;;;;;;5136548;27;20087;-38
2021/09/25 11:22:38;;;;;;;4.03;1.92;;;17.30;62.30;;;;;;5136755;27;20051;-37
2021/09/25 11:25:13;;;;;;;3.63;1.40;;;17.30;62.00;;;;;;5136370;27;20387;-37
2021/09/25 11:27:51;;;;;;;4.10;1.98;;;17.30;61.50;;;;;;5136528;27;20070;-36
2021/09/25 11:30:25;;;;;;;8.90;2.53;;;17.40;61.80;;;;;;5136291;27;20019;-40
2021/09/25 11:32:57;;;;;;;8.63;2.33;;;17.40;61.50;;;;;;5131582;27;20098;-40
2021/09/25 11:35:34;;;;;;;7.65;1.95;;;17.40;61.30;;;;;;5136299;27;20307;-41
2021/09/25 11:38:10;;;;;;;5.65;2.33;;;17.40;61.10;;;;;;5135803;27;20108;-41
2021/09/25 11:40:37;;;;;;;8.60;1.88;;;17.40;61.00;;;;;;5136435;28;20019;-39
2021/09/25 11:43:10;;;;;;;5.20;1.60;;;17.40;61.00;;;;;;5136527;28;20468;-40
2021/09/25 11:45:38;;;;;;;8.55;1.92;;;17.40;60.90;;;;;;5135912;28;20038;-40
2021/09/25 11:48:05;;;;;;;8.85;1.85;;;17.40;60.80;;;;;;5135971;28;20031;-36
2021/09/25 11:50:35;;;;;;;5.18;1.92;;;17.40;60.90;;;;;;5135991;28;20020;-40
2021/09/25 11:53:04;;;;;;;5.13;2.97;;;17.40;60.90;;;;;;5135690;28;20335;-37
2021/09/25 11:55:32;;;;;;;7.80;1.73;;;17.50;61.60;;;;;;5135713;28;20046;-37
2021/09/25 11:58:01;;;;;;;4.82;2.08;;;17.60;61.40;;;;;;5135973;28;20292;-40
2021/09/25 12:00:32;;;;;;;4.43;1.73;;;17.80;61.10;;;;;;5135743;28;20023;-42
2021/09/25 12:02:58;;;;;;;3.65;1.73;;;17.90;60.90;;;;;;5135965;28;20039;-37
2021/09/25 12:05:28;;;;;;;5.88;2.03;;;18.00;60.80;;;;;;5135892;28;20415;-37
2021/09/25 12:07:55;;;;;;;5.60;2.00;;;18.00;60.30;;;;;;5135541;28;20038;-38
2021/09/25 12:10:25;;;;;;;8.70;1.85;;;18.10;60.20;;;;;;5136221;28;20258;-37
2021/09/25 12:13:03;;;;;;;4.30;2.03;;;18.10;59.90;;;;;;5135593;28;20035;-43
2021/09/25 12:15:35;;;;;;;3.00;1.48;;;18.10;59.80;;;;;;5135488;28;20015;-38
2021/09/25 12:18:06;;;;;;;5.00;1.92;;;18.10;59.80;;;;;;5135719;28;20110;-42
2021/09/25 12:20:33;;;;;;;8.02;1.75;;;18.10;60.30;;;;;;5135624;28;20029;-42
2021/09/25 12:22:59;;;;;;;4.25;1.70;;;18.10;60.60;;;;;;5135683;28;20070;-37
2021/09/25 12:25:26;;;;;;;7.85;2.67;;;18.20;60.20;;;;;;5136793;27;20027;-42
2021/09/25 12:27:51;;;;;;;8.38;2.00;;;18.20;60.10;;;;;;5139326;27;20440;-38
2021/09/25 12:30:17;;;;;;;5.82;2.20;;;18.20;60.10;;;;;;5139371;27;20102;-38
2021/09/25 12:33:02;;;;;;;2.95;2.03;;;18.40;60.20;;;;;;5139123;27;20023;-37
2021/09/25 12:35:28;;;;;;;5.90;1.60;;;18.50;60.40;;;;;;5139882;27;20024;-37
2021/09/25 12:37:54;;;;;;;5.00;1.98;;;18.50;58.90;;;;;;5138891;27;20438;-37
2021/09/25 12:40:21;;;;;;;3.42;1.48;;;18.60;58.40;;;;;;5139277;27;20027;-42
2021/09/25 12:42:50;;;;;;;3.03;1.75;;;18.60;57.50;;;;;;5139350;27;20307;-41
2021/09/25 12:45:16;;;;;;;6.40;2.00;;;18.60;57.40;;;;;;5139169;27;20326;-43
2021/09/25 12:47:42;;;;;;;7.18;2.60;;;18.60;57.60;;;;;;5120873;27;20027;-38
2021/09/25 12:50:29;;;;;;;4.28;2.63;;;18.50;57.70;;;;;;5138833;27;20450;-39